Terminal Aerodrome Forecast
Issued by NWS Bismarck, ND

Home | Current Version | Previous Version | Text Only | Print | Product List | Glossary On
Versions: 1 2 3 4 5 6 7 8 9 10 11 12 13 14 15 16 17
000
FTUS43 KBIS 220500
TAFBIS
TAF
KBIS 220524Z 2206/2306 VRB03KT P6SM SKC
     FM221400 16006KT P6SM SKC
     FM221900 16014G20KT P6SM SKC
     FM230000 14010KT P6SM SCT150=

USA.gov is the U.S. government's official web portal to all federal, state and local government web resources and services.